Terminal Aerodrome Forecast
Issued by NWS Jackson, KY

Home | Current Version | Previous Version | Text Only | Print | Product List | Glossary On
Versions: 1 2 3 4 5 6 7 8 9 10 11 12 13 14 15 16 17 18 19 20 21
683
FTUS43 KJKL 201120
TAFLOZ
TAF
KLOZ 201120Z 2012/2112 00000KT P6SM FEW150
     FM202000 22009KT P6SM VCTS SCT050CB
     FM210100 22007KT P6SM BKN050
     FM210900 VRB03KT P6SM -SHRA OVC035=

USA.gov is the U.S. government's official web portal to all federal, state and local government web resources and services.